sensor_id;sensor_type;location;lat;lon;timestamp;temperature;humidity
37222;DHT22;23119;51.842;-2.230;2023-05-29T00:00:32;13.00;99.90
37222;DHT22;23119;51.842;-2.230;2023-05-29T00:02:58;13.00;99.90
37222;DHT22;23119;51.842;-2.230;2023-05-29T00:05:24;12.90;99.90
37222;DHT22;23119;51.842;-2.230;2023-05-29T00:07:50;12.90;99.90
37222;DHT22;23119;51.842;-2.230;2023-05-29T00:10:16;12.70;99.90
37222;DHT22;23119;51.842;-2.230;2023-05-29T00:12:44;12.70;99.90
37222;DHT22;23119;51.842;-2.230;2023-05-29T00:15:15;12.60;99.90
37222;DHT22;23119;51.842;-2.230;2023-05-29T00:17:40;12.60;99.90
37222;DHT22;23119;51.842;-2.230;2023-05-29T00:20:07;12.60;99.90
37222;DHT22;23119;51.842;-2.230;2023-05-29T00:22:37;12.50;99.90
37222;DHT22;23119;51.842;-2.230;2023-05-29T00:25:06;12.50;99.90
37222;DHT22;23119;51.842;-2.230;2023-05-29T00:27:33;12.60;99.90
37222;DHT22;23119;51.842;-2.230;2023-05-29T00:30:00;12.50;99.90
37222;DHT22;23119;51.842;-2.230;2023-05-29T00:32:26;12.50;99.90
37222;DHT22;23119;51.842;-2.230;2023-05-29T00:34:53;12.40;99.90
37222;DHT22;23119;51.842;-2.230;2023-05-29T00:37:19;12.40;99.90
37222;DHT22;23119;51.842;-2.230;2023-05-29T00:39:47;12.50;99.90
37222;DHT22;23119;51.842;-2.230;2023-05-29T00:42:16;12.40;99.90
37222;DHT22;23119;51.842;-2.230;2023-05-29T00:44:42;12.40;99.90
37222;DHT22;23119;51.842;-2.230;2023-05-29T00:47:08;12.30;99.90
37222;DHT22;23119;51.842;-2.230;2023-05-29T00:49:36;12.30;99.90
37222;DHT22;23119;51.842;-2.230;2023-05-29T00:52:06;12.30;99.90
37222;DHT22;23119;51.842;-2.230;2023-05-29T00:54:42;12.20;99.90
37222;DHT22;23119;51.842;-2.230;2023-05-29T00:57:16;12.20;99.90
37222;DHT22;23119;51.842;-2.230;2023-05-29T00:59:44;12.20;99.90
37222;DHT22;23119;51.842;-2.230;2023-05-29T01:02:11;12.20;99.90
37222;DHT22;23119;51.842;-2.230;2023-05-29T01:04:37;12.20;99.90
37222;DHT22;23119;51.842;-2.230;2023-05-29T01:07:05;12.10;99.90
37222;DHT22;23119;51.842;-2.230;2023-05-29T01:09:32;12.00;99.90
37222;DHT22;23119;51.842;-2.230;2023-05-29T01:12:36;12.00;99.90
37222;DHT22;23119;51.842;-2.230;2023-05-29T01:15:24;12.00;99.90
37222;DHT22;23119;51.842;-2.230;2023-05-29T01:18:07;11.90;99.90
37222;DHT22;23119;51.842;-2.230;2023-05-29T01:26:41;11.80;99.90
37222;DHT22;23119;51.842;-2.230;2023-05-29T01:29:07;11.80;99.90
37222;DHT22;23119;51.842;-2.230;2023-05-29T01:31:39;11.80;99.90
37222;DHT22;23119;51.842;-2.230;2023-05-29T01:34:05;11.80;99.90
37222;DHT22;23119;51.842;-2.230;2023-05-29T01:36:31;11.70;99.90
37222;DHT22;23119;51.842;-2.230;2023-05-29T01:39:00;11.70;99.90
37222;DHT22;23119;51.842;-2.230;2023-05-29T01:41:29;11.70;99.90
37222;DHT22;23119;51.842;-2.230;2023-05-29T01:43:56;11.60;99.90
37222;DHT22;23119;51.842;-2.230;2023-05-29T01:46:23;11.50;99.90
37222;DHT22;23119;51.842;-2.230;2023-05-29T01:48:53;11.60;99.90
37222;DHT22;23119;51.842;-2.230;2023-05-29T01:51:20;11.50;99.90
37222;DHT22;23119;51.842;-2.230;2023-05-29T01:53:46;11.40;99.90
37222;DHT22;23119;51.842;-2.230;2023-05-29T01:56:15;11.40;99.90
37222;DHT22;23119;51.842;-2.230;2023-05-29T01:58:41;11.30;99.90
37222;DHT22;23119;51.842;-2.230;2023-05-29T02:01:07;11.20;99.90
37222;DHT22;23119;51.842;-2.230;2023-05-29T02:03:34;11.20;99.90
37222;DHT22;23119;51.842;-2.230;2023-05-29T02:06:05;11.20;99.90
37222;DHT22;23119;51.842;-2.230;2023-05-29T02:08:34;11.10;99.90
37222;DHT22;23119;51.842;-2.230;2023-05-29T02:11:00;11.10;99.90
37222;DHT22;23119;51.842;-2.230;2023-05-29T02:13:28;11.10;99.90
37222;DHT22;23119;51.842;-2.230;2023-05-29T02:15:54;11.00;99.90
37222;DHT22;23119;51.842;-2.230;2023-05-29T02:18:20;11.00;99.90
37222;DHT22;23119;51.842;-2.230;2023-05-29T02:20:46;11.00;99.90
37222;DHT22;23119;51.842;-2.230;2023-05-29T02:23:14;11.00;99.90
37222;DHT22;23119;51.842;-2.230;2023-05-29T02:25:41;11.00;99.90
37222;DHT22;23119;51.842;-2.230;2023-05-29T02:28:07;11.00;99.90
37222;DHT22;23119;51.842;-2.230;2023-05-29T02:30:34;10.90;99.90
37222;DHT22;23119;51.842;-2.230;2023-05-29T02:33:04;10.90;99.90
37222;DHT22;23119;51.842;-2.230;2023-05-29T02:35:31;10.90;99.90
37222;DHT22;23119;51.842;-2.230;2023-05-29T02:37:57;10.80;99.90
37222;DHT22;23119;51.842;-2.230;2023-05-29T02:40:25;10.80;99.90
37222;DHT22;23119;51.842;-2.230;2023-05-29T02:42:51;10.80;99.90
37222;DHT22;23119;51.842;-2.230;2023-05-29T02:45:17;10.80;99.90
37222;DHT22;23119;51.842;-2.230;2023-05-29T02:47:45;10.70;99.90
37222;DHT22;23119;51.842;-2.230;2023-05-29T02:50:12;10.70;99.90
37222;DHT22;23119;51.842;-2.230;2023-05-29T02:52:40;10.70;99.90
37222;DHT22;23119;51.842;-2.230;2023-05-29T02:55:06;10.60;99.90
37222;DHT22;23119;51.842;-2.230;2023-05-29T02:57:32;10.50;99.90
37222;DHT22;23119;51.842;-2.230;2023-05-29T02:59:58;10.50;99.90
37222;DHT22;23119;51.842;-2.230;2023-05-29T03:02:26;10.50;99.90
37222;DHT22;23119;51.842;-2.230;2023-05-29T03:04:55;10.40;99.90
37222;DHT22;23119;51.842;-2.230;2023-05-29T03:07:20;10.40;99.90
37222;DHT22;23119;51.842;-2.230;2023-05-29T03:09:46;10.40;99.90
37222;DHT22;23119;51.842;-2.230;2023-05-29T03:12:12;10.40;99.90
37222;DHT22;23119;51.842;-2.230;2023-05-29T03:14:39;10.40;99.90
37222;DHT22;23119;51.842;-2.230;2023-05-29T03:17:06;10.30;99.90
37222;DHT22;23119;51.842;-2.230;2023-05-29T03:19:33;10.30;99.90
37222;DHT22;23119;51.842;-2.230;2023-05-29T03:21:58;10.20;99.90
37222;DHT22;23119;51.842;-2.230;2023-05-29T03:24:24;10.20;99.90
37222;DHT22;23119;51.842;-2.230;2023-05-29T03:26:50;10.20;99.90
37222;DHT22;23119;51.842;-2.230;2023-05-29T03:29:18;10.20;99.90
37222;DHT22;23119;51.842;-2.230;2023-05-29T03:31:44;10.10;99.90
37222;DHT22;23119;51.842;-2.230;2023-05-29T03:34:10;10.10;99.90
37222;DHT22;23119;51.842;-2.230;2023-05-29T03:36:36;10.00;99.90
37222;DHT22;23119;51.842;-2.230;2023-05-29T03:39:04;10.00;99.90
37222;DHT22;23119;51.842;-2.230;2023-05-29T03:41:30;10.00;99.90
37222;DHT22;23119;51.842;-2.230;2023-05-29T03:43:58;9.90;99.90
37222;DHT22;23119;51.842;-2.230;2023-05-29T03:46:24;10.00;99.90
37222;DHT22;23119;51.842;-2.230;2023-05-29T03:48:52;10.00;99.90
37222;DHT22;23119;51.842;-2.230;2023-05-29T03:51:18;10.00;99.90
37222;DHT22;23119;51.842;-2.230;2023-05-29T03:53:44;9.90;99.90
37222;DHT22;23119;51.842;-2.230;2023-05-29T03:56:09;9.90;99.90
37222;DHT22;23119;51.842;-2.230;2023-05-29T03:58:35;9.90;99.90
37222;DHT22;23119;51.842;-2.230;2023-05-29T04:01:02;9.80;99.90
37222;DHT22;23119;51.842;-2.230;2023-05-29T04:03:27;9.80;99.90
37222;DHT22;23119;51.842;-2.230;2023-05-29T04:05:54;9.90;99.90
37222;DHT22;23119;51.842;-2.230;2023-05-29T04:08:22;9.90;99.90
37222;DHT22;23119;51.842;-2.230;2023-05-29T04:10:48;9.90;99.90
37222;DHT22;23119;51.842;-2.230;2023-05-29T04:13:16;9.90;99.90
37222;DHT22;23119;51.842;-2.230;2023-05-29T04:15:42;9.90;99.90
37222;DHT22;23119;51.842;-2.230;2023-05-29T04:18:08;9.80;99.90
37222;DHT22;23119;51.842;-2.230;2023-05-29T04:20:33;9.90;99.90
37222;DHT22;23119;51.842;-2.230;2023-05-29T04:22:59;9.90;99.90
37222;DHT22;23119;51.842;-2.230;2023-05-29T04:25:27;10.00;99.90
37222;DHT22;23119;51.842;-2.230;2023-05-29T04:27:53;10.20;99.90
37222;DHT22;23119;51.842;-2.230;2023-05-29T04:30:18;10.50;99.90
37222;DHT22;23119;51.842;-2.230;2023-05-29T04:32:44;10.80;99.90
37222;DHT22;23119;51.842;-2.230;2023-05-29T04:35:12;11.30;99.90
37222;DHT22;23119;51.842;-2.230;2023-05-29T04:37:40;11.70;99.90
37222;DHT22;23119;51.842;-2.230;2023-05-29T04:40:09;12.10;99.90
37222;DHT22;23119;51.842;-2.230;2023-05-29T04:42:45;12.50;99.90
37222;DHT22;23119;51.842;-2.230;2023-05-29T04:45:14;12.90;99.90
37222;DHT22;23119;51.842;-2.230;2023-05-29T04:47:40;13.30;99.90
37222;DHT22;23119;51.842;-2.230;2023-05-29T04:50:10;13.80;99.90
37222;DHT22;23119;51.842;-2.230;2023-05-29T04:52:37;14.20;99.90
37222;DHT22;23119;51.842;-2.230;2023-05-29T04:55:05;14.60;99.90
37222;DHT22;23119;51.842;-2.230;2023-05-29T04:57:31;14.80;99.90
37222;DHT22;23119;51.842;-2.230;2023-05-29T04:59:57;15.30;99.90
37222;DHT22;23119;51.842;-2.230;2023-05-29T05:02:22;15.80;99.80
37222;DHT22;23119;51.842;-2.230;2023-05-29T05:04:48;16.20;99.60
37222;DHT22;23119;51.842;-2.230;2023-05-29T05:07:14;16.70;97.60
37222;DHT22;23119;51.842;-2.230;2023-05-29T05:09:42;17.00;97.50
37222;DHT22;23119;51.842;-2.230;2023-05-29T05:12:07;17.50;95.30
37222;DHT22;23119;51.842;-2.230;2023-05-29T05:14:36;18.20;93.90
37222;DHT22;23119;51.842;-2.230;2023-05-29T05:17:01;18.80;94.30
37222;DHT22;23119;51.842;-2.230;2023-05-29T05:19:28;19.30;92.90
37222;DHT22;23119;51.842;-2.230;2023-05-29T05:21:58;19.90;93.00
37222;DHT22;23119;51.842;-2.230;2023-05-29T05:24:24;20.70;92.10
37222;DHT22;23119;51.842;-2.230;2023-05-29T05:26:52;21.10;91.10
37222;DHT22;23119;51.842;-2.230;2023-05-29T05:29:18;21.20;87.10
37222;DHT22;23119;51.842;-2.230;2023-05-29T05:31:44;21.60;89.60
37222;DHT22;23119;51.842;-2.230;2023-05-29T05:34:10;22.10;86.50
37222;DHT22;23119;51.842;-2.230;2023-05-29T05:36:35;22.40;85.90
37222;DHT22;23119;51.842;-2.230;2023-05-29T05:39:04;23.10;85.60
37222;DHT22;23119;51.842;-2.230;2023-05-29T05:41:30;23.60;83.60
37222;DHT22;23119;51.842;-2.230;2023-05-29T05:43:56;24.20;82.00
37222;DHT22;23119;51.842;-2.230;2023-05-29T05:46:22;24.50;81.40
37222;DHT22;23119;51.842;-2.230;2023-05-29T05:48:48;24.70;80.70
37222;DHT22;23119;51.842;-2.230;2023-05-29T05:51:13;25.30;79.80
37222;DHT22;23119;51.842;-2.230;2023-05-29T05:53:39;25.50;78.50
37222;DHT22;23119;51.842;-2.230;2023-05-29T05:56:12;26.30;77.60
37222;DHT22;23119;51.842;-2.230;2023-05-29T05:58:38;26.60;76.00
37222;DHT22;23119;51.842;-2.230;2023-05-29T06:01:04;26.90;75.30
37222;DHT22;23119;51.842;-2.230;2023-05-29T06:03:37;27.10;73.90
37222;DHT22;23119;51.842;-2.230;2023-05-29T06:06:03;27.40;71.90
37222;DHT22;23119;51.842;-2.230;2023-05-29T06:08:29;28.30;73.70
37222;DHT22;23119;51.842;-2.230;2023-05-29T06:10:56;28.60;72.20
37222;DHT22;23119;51.842;-2.230;2023-05-29T06:13:21;29.00;70.90
37222;DHT22;23119;51.842;-2.230;2023-05-29T06:15:47;29.00;71.40
37222;DHT22;23119;51.842;-2.230;2023-05-29T06:18:13;29.00;70.90
37222;DHT22;23119;51.842;-2.230;2023-05-29T06:20:41;28.50;68.00
37222;DHT22;23119;51.842;-2.230;2023-05-29T06:23:07;28.60;69.40
37222;DHT22;23119;51.842;-2.230;2023-05-29T06:25:32;28.00;68.20
37222;DHT22;23119;51.842;-2.230;2023-05-29T06:27:59;28.20;69.40
37222;DHT22;23119;51.842;-2.230;2023-05-29T06:30:25;27.70;69.40
37222;DHT22;23119;51.842;-2.230;2023-05-29T06:32:51;27.80;69.70
37222;DHT22;23119;51.842;-2.230;2023-05-29T06:35:17;28.20;69.80
37222;DHT22;23119;51.842;-2.230;2023-05-29T06:37:42;28.50;69.10
37222;DHT22;23119;51.842;-2.230;2023-05-29T06:40:09;28.20;68.30
37222;DHT22;23119;51.842;-2.230;2023-05-29T06:42:53;28.60;68.30
37222;DHT22;23119;51.842;-2.230;2023-05-29T06:45:20;29.10;66.80
37222;DHT22;23119;51.842;-2.230;2023-05-29T06:47:46;29.80;67.70
37222;DHT22;23119;51.842;-2.230;2023-05-29T06:50:14;29.80;66.40
37222;DHT22;23119;51.842;-2.230;2023-05-29T06:52:42;30.10;66.30
37222;DHT22;23119;51.842;-2.230;2023-05-29T06:55:08;30.40;65.80
37222;DHT22;23119;51.842;-2.230;2023-05-29T06:57:36;30.50;65.50
37222;DHT22;23119;51.842;-2.230;2023-05-29T07:00:02;30.80;65.30
37222;DHT22;23119;51.842;-2.230;2023-05-29T07:02:31;30.30;64.70
37222;DHT22;23119;51.842;-2.230;2023-05-29T07:04:57;28.90;66.20
37222;DHT22;23119;51.842;-2.230;2023-05-29T07:07:23;26.60;68.30
37222;DHT22;23119;51.842;-2.230;2023-05-29T07:09:48;24.80;70.40
37222;DHT22;23119;51.842;-2.230;2023-05-29T07:12:14;23.10;73.00
37222;DHT22;23119;51.842;-2.230;2023-05-29T07:14:40;21.70;76.10
37222;DHT22;23119;51.842;-2.230;2023-05-29T07:17:06;20.50;78.40
37222;DHT22;23119;51.842;-2.230;2023-05-29T07:19:32;19.50;80.40
37222;DHT22;23119;51.842;-2.230;2023-05-29T07:22:00;18.90;83.50
37222;DHT22;23119;51.842;-2.230;2023-05-29T07:24:28;18.20;84.80
37222;DHT22;23119;51.842;-2.230;2023-05-29T07:26:57;17.70;86.90
37222;DHT22;23119;51.842;-2.230;2023-05-29T07:29:27;17.20;88.80
37222;DHT22;23119;51.842;-2.230;2023-05-29T07:31:58;17.00;89.00
37222;DHT22;23119;51.842;-2.230;2023-05-29T07:34:24;16.90;90.20
37222;DHT22;23119;51.842;-2.230;2023-05-29T07:37:16;16.30;90.90
37222;DHT22;23119;51.842;-2.230;2023-05-29T07:39:44;16.10;91.80
37222;DHT22;23119;51.842;-2.230;2023-05-29T07:42:10;15.60;92.90
37222;DHT22;23119;51.842;-2.230;2023-05-29T07:44:36;15.50;93.20
37222;DHT22;23119;51.842;-2.230;2023-05-29T07:47:01;15.50;93.50
37222;DHT22;23119;51.842;-2.230;2023-05-29T07:49:27;15.40;93.90
37222;DHT22;23119;51.842;-2.230;2023-05-29T07:51:53;15.30;94.30
37222;DHT22;23119;51.842;-2.230;2023-05-29T07:54:21;15.70;94.00
37222;DHT22;23119;51.842;-2.230;2023-05-29T07:56:49;15.70;93.90
37222;DHT22;23119;51.842;-2.230;2023-05-29T07:59:15;16.10;93.60
37222;DHT22;23119;51.842;-2.230;2023-05-29T08:01:42;16.30;93.10
37222;DHT22;23119;51.842;-2.230;2023-05-29T08:04:11;16.20;92.90
37222;DHT22;23119;51.842;-2.230;2023-05-29T08:06:44;16.10;93.10
37222;DHT22;23119;51.842;-2.230;2023-05-29T08:09:10;16.40;93.20
37222;DHT22;23119;51.842;-2.230;2023-05-29T08:11:36;16.40;93.20
37222;DHT22;23119;51.842;-2.230;2023-05-29T08:14:03;16.50;93.00
37222;DHT22;23119;51.842;-2.230;2023-05-29T08:16:31;16.80;92.60
37222;DHT22;23119;51.842;-2.230;2023-05-29T08:18:56;16.60;92.60
37222;DHT22;23119;51.842;-2.230;2023-05-29T08:21:22;16.50;93.10
37222;DHT22;23119;51.842;-2.230;2023-05-29T08:23:51;16.20;93.20
37222;DHT22;23119;51.842;-2.230;2023-05-29T08:26:16;16.30;91.50
37222;DHT22;23119;51.842;-2.230;2023-05-29T08:28:46;16.60;91.20
37222;DHT22;23119;51.842;-2.230;2023-05-29T08:31:11;17.10;90.50
37222;DHT22;23119;51.842;-2.230;2023-05-29T08:33:37;17.30;90.00
37222;DHT22;23119;51.842;-2.230;2023-05-29T08:36:03;17.20;89.10
37222;DHT22;23119;51.842;-2.230;2023-05-29T08:38:30;16.90;89.30
37222;DHT22;23119;51.842;-2.230;2023-05-29T08:40:59;16.90;90.00
37222;DHT22;23119;51.842;-2.230;2023-05-29T08:43:29;16.90;90.50
37222;DHT22;23119;51.842;-2.230;2023-05-29T08:46:03;17.00;90.40
37222;DHT22;23119;51.842;-2.230;2023-05-29T08:48:30;16.90;90.20
37222;DHT22;23119;51.842;-2.230;2023-05-29T08:50:58;17.00;90.70
37222;DHT22;23119;51.842;-2.230;2023-05-29T08:53:24;17.00;90.70
37222;DHT22;23119;51.842;-2.230;2023-05-29T08:55:53;16.60;90.80
37222;DHT22;23119;51.842;-2.230;2023-05-29T08:58:19;16.60;91.00
37222;DHT22;23119;51.842;-2.230;2023-05-29T09:00:53;16.60;91.20
37222;DHT22;23119;51.842;-2.230;2023-05-29T09:03:20;16.30;91.70
37222;DHT22;23119;51.842;-2.230;2023-05-29T09:05:49;16.10;91.80
37222;DHT22;23119;51.842;-2.230;2023-05-29T09:08:15;16.10;92.10
37222;DHT22;23119;51.842;-2.230;2023-05-29T09:10:45;16.20;92.30
37222;DHT22;23119;51.842;-2.230;2023-05-29T09:13:16;16.20;92.00
37222;DHT22;23119;51.842;-2.230;2023-05-29T09:15:42;16.30;92.00
37222;DHT22;23119;51.842;-2.230;2023-05-29T09:18:08;16.30;92.30
37222;DHT22;23119;51.842;-2.230;2023-05-29T09:20:36;16.40;92.20
37222;DHT22;23119;51.842;-2.230;2023-05-29T09:23:07;16.20;92.40
37222;DHT22;23119;51.842;-2.230;2023-05-29T09:25:36;16.10;92.70
37222;DHT22;23119;51.842;-2.230;2023-05-29T09:28:06;16.00;93.00
37222;DHT22;23119;51.842;-2.230;2023-05-29T09:30:45;16.00;92.90
37222;DHT22;23119;51.842;-2.230;2023-05-29T09:33:13;16.00;92.80
37222;DHT22;23119;51.842;-2.230;2023-05-29T09:38:06;16.30;92.70
37222;DHT22;23119;51.842;-2.230;2023-05-29T09:40:34;16.40;92.50
37222;DHT22;23119;51.842;-2.230;2023-05-29T09:43:05;16.80;92.40
37222;DHT22;23119;51.842;-2.230;2023-05-29T09:45:35;17.00;91.40
37222;DHT22;23119;51.842;-2.230;2023-05-29T09:48:01;16.70;91.40
37222;DHT22;23119;51.842;-2.230;2023-05-29T09:50:27;16.60;92.10
37222;DHT22;23119;51.842;-2.230;2023-05-29T09:52:56;16.50;92.00
37222;DHT22;23119;51.842;-2.230;2023-05-29T09:55:25;16.60;92.30
37222;DHT22;23119;51.842;-2.230;2023-05-29T09:57:54;16.90;92.00
37222;DHT22;23119;51.842;-2.230;2023-05-29T10:00:20;16.70;91.70
37222;DHT22;23119;51.842;-2.230;2023-05-29T10:02:48;16.60;91.80
37222;DHT22;23119;51.842;-2.230;2023-05-29T10:05:16;16.70;91.80
37222;DHT22;23119;51.842;-2.230;2023-05-29T10:07:49;16.50;91.90
37222;DHT22;23119;51.842;-2.230;2023-05-29T10:10:18;16.60;92.10
37222;DHT22;23119;51.842;-2.230;2023-05-29T10:12:50;16.60;92.10
37222;DHT22;23119;51.842;-2.230;2023-05-29T10:15:17;16.80;92.40
37222;DHT22;23119;51.842;-2.230;2023-05-29T10:17:59;16.70;92.20
37222;DHT22;23119;51.842;-2.230;2023-05-29T10:20:26;16.80;92.00
37222;DHT22;23119;51.842;-2.230;2023-05-29T10:22:55;16.80;92.10
37222;DHT22;23119;51.842;-2.230;2023-05-29T10:25:30;17.10;92.10
37222;DHT22;23119;51.842;-2.230;2023-05-29T10:27:57;17.30;91.70
37222;DHT22;23119;51.842;-2.230;2023-05-29T10:30:30;17.40;91.40
37222;DHT22;23119;51.842;-2.230;2023-05-29T10:33:36;17.40;91.20
37222;DHT22;23119;51.842;-2.230;2023-05-29T10:38:40;17.70;91.10
37222;DHT22;23119;51.842;-2.230;2023-05-29T10:44:03;17.50;90.70
37222;DHT22;23119;51.842;-2.230;2023-05-29T10:49:29;17.40;90.70
37222;DHT22;23119;51.842;-2.230;2023-05-29T10:51:59;17.30;90.80
37222;DHT22;23119;51.842;-2.230;2023-05-29T10:54:26;17.40;90.70
37222;DHT22;23119;51.842;-2.230;2023-05-29T10:57:01;17.40;90.80
37222;DHT22;23119;51.842;-2.230;2023-05-29T10:59:27;17.50;90.60
37222;DHT22;23119;51.842;-2.230;2023-05-29T11:01:56;17.50;90.40
37222;DHT22;23119;51.842;-2.230;2023-05-29T11:06:52;18.10;90.60
37222;DHT22;23119;51.842;-2.230;2023-05-29T11:09:34;18.40;90.10
37222;DHT22;23119;51.842;-2.230;2023-05-29T11:12:16;18.50;89.00
37222;DHT22;23119;51.842;-2.230;2023-05-29T11:15:24;18.70;90.00
37222;DHT22;23119;51.842;-2.230;2023-05-29T11:17:50;18.90;88.70
37222;DHT22;23119;51.842;-2.230;2023-05-29T11:25:15;19.30;88.50
37222;DHT22;23119;51.842;-2.230;2023-05-29T11:27:43;19.30;88.50
37222;DHT22;23119;51.842;-2.230;2023-05-29T11:30:09;19.60;88.40
37222;DHT22;23119;51.842;-2.230;2023-05-29T11:32:36;19.80;88.40
37222;DHT22;23119;51.842;-2.230;2023-05-29T11:35:09;19.60;86.90
37222;DHT22;23119;51.842;-2.230;2023-05-29T11:37:38;19.60;87.60
37222;DHT22;23119;51.842;-2.230;2023-05-29T11:40:11;19.40;86.90
37222;DHT22;23119;51.842;-2.230;2023-05-29T11:42:46;19.30;87.20
37222;DHT22;23119;51.842;-2.230;2023-05-29T11:47:57;19.40;86.90
37222;DHT22;23119;51.842;-2.230;2023-05-29T11:50:24;19.60;87.50
37222;DHT22;23119;51.842;-2.230;2023-05-29T11:52:54;19.70;87.00
37222;DHT22;23119;51.842;-2.230;2023-05-29T11:55:38;19.90;87.70
37222;DHT22;23119;51.842;-2.230;2023-05-29T11:58:06;19.70;86.50
37222;DHT22;23119;51.842;-2.230;2023-05-29T12:00:38;19.70;87.10
37222;DHT22;23119;51.842;-2.230;2023-05-29T12:03:06;19.90;86.70
37222;DHT22;23119;51.842;-2.230;2023-05-29T12:05:52;19.80;87.10
37222;DHT22;23119;51.842;-2.230;2023-05-29T12:08:24;19.60;87.70
37222;DHT22;23119;51.842;-2.230;2023-05-29T12:10:52;19.60;88.80
37222;DHT22;23119;51.842;-2.230;2023-05-29T12:13:22;19.60;88.90
37222;DHT22;23119;51.842;-2.230;2023-05-29T12:15:52;19.80;87.70
37222;DHT22;23119;51.842;-2.230;2023-05-29T12:18:21;19.80;87.70
37222;DHT22;23119;51.842;-2.230;2023-05-29T12:20:50;19.80;87.00
37222;DHT22;23119;51.842;-2.230;2023-05-29T12:23:18;19.70;87.40
37222;DHT22;23119;51.842;-2.230;2023-05-29T12:25:46;19.80;88.30
37222;DHT22;23119;51.842;-2.230;2023-05-29T12:28:16;19.70;87.90
37222;DHT22;23119;51.842;-2.230;2023-05-29T12:30:44;19.70;87.40
37222;DHT22;23119;51.842;-2.230;2023-05-29T12:33:30;20.00;88.10
37222;DHT22;23119;51.842;-2.230;2023-05-29T12:36:04;20.10;87.70
37222;DHT22;23119;51.842;-2.230;2023-05-29T12:38:33;20.00;87.70
37222;DHT22;23119;51.842;-2.230;2023-05-29T12:41:01;19.90;87.70
37222;DHT22;23119;51.842;-2.230;2023-05-29T12:43:28;20.10;87.80
37222;DHT22;23119;51.842;-2.230;2023-05-29T12:45:54;19.90;88.30
37222;DHT22;23119;51.842;-2.230;2023-05-29T12:48:31;20.10;88.00
37222;DHT22;23119;51.842;-2.230;2023-05-29T12:50:57;20.20;88.20
37222;DHT22;23119;51.842;-2.230;2023-05-29T12:53:28;20.00;87.10
37222;DHT22;23119;51.842;-2.230;2023-05-29T12:55:57;20.00;87.90
37222;DHT22;23119;51.842;-2.230;2023-05-29T12:58:23;19.70;88.10
37222;DHT22;23119;51.842;-2.230;2023-05-29T13:00:53;19.70;88.50
37222;DHT22;23119;51.842;-2.230;2023-05-29T13:03:21;19.80;88.90
37222;DHT22;23119;51.842;-2.230;2023-05-29T13:05:50;19.90;88.60
37222;DHT22;23119;51.842;-2.230;2023-05-29T13:08:19;20.00;87.70
37222;DHT22;23119;51.842;-2.230;2023-05-29T13:10:49;20.00;87.70
37222;DHT22;23119;51.842;-2.230;2023-05-29T13:13:15;19.90;87.80
37222;DHT22;23119;51.842;-2.230;2023-05-29T13:15:41;19.90;87.40
37222;DHT22;23119;51.842;-2.230;2023-05-29T13:18:07;20.00;87.30
37222;DHT22;23119;51.842;-2.230;2023-05-29T13:20:34;20.00;87.00
37222;DHT22;23119;51.842;-2.230;2023-05-29T13:23:00;19.90;87.20
37222;DHT22;23119;51.842;-2.230;2023-05-29T13:25:27;19.80;87.80
37222;DHT22;23119;51.842;-2.230;2023-05-29T13:27:53;19.90;89.00
37222;DHT22;23119;51.842;-2.230;2023-05-29T13:30:21;19.70;88.50
37222;DHT22;23119;51.842;-2.230;2023-05-29T13:32:47;19.80;88.60
37222;DHT22;23119;51.842;-2.230;2023-05-29T13:35:15;19.80;88.60
37222;DHT22;23119;51.842;-2.230;2023-05-29T13:37:42;19.70;88.80
37222;DHT22;23119;51.842;-2.230;2023-05-29T13:40:11;19.70;88.60
37222;DHT22;23119;51.842;-2.230;2023-05-29T13:42:38;19.50;89.20
37222;DHT22;23119;51.842;-2.230;2023-05-29T13:45:07;19.60;89.10
37222;DHT22;23119;51.842;-2.230;2023-05-29T13:47:33;19.60;89.10
37222;DHT22;23119;51.842;-2.230;2023-05-29T13:50:02;19.60;89.70
37222;DHT22;23119;51.842;-2.230;2023-05-29T13:52:28;19.60;89.80
37222;DHT22;23119;51.842;-2.230;2023-05-29T13:54:54;19.80;89.80
37222;DHT22;23119;51.842;-2.230;2023-05-29T13:57:19;19.70;89.10
37222;DHT22;23119;51.842;-2.230;2023-05-29T13:59:45;19.40;88.60
37222;DHT22;23119;51.842;-2.230;2023-05-29T14:02:11;19.60;90.00
37222;DHT22;23119;51.842;-2.230;2023-05-29T14:04:37;19.60;88.80
37222;DHT22;23119;51.842;-2.230;2023-05-29T14:07:04;19.60;89.20
37222;DHT22;23119;51.842;-2.230;2023-05-29T14:09:30;19.70;89.70
37222;DHT22;23119;51.842;-2.230;2023-05-29T14:11:58;19.60;90.10
37222;DHT22;23119;51.842;-2.230;2023-05-29T14:14:29;19.80;89.40
37222;DHT22;23119;51.842;-2.230;2023-05-29T14:16:54;19.90;89.10
37222;DHT22;23119;51.842;-2.230;2023-05-29T14:19:24;20.00;89.20
37222;DHT22;23119;51.842;-2.230;2023-05-29T14:21:50;20.10;89.50
37222;DHT22;23119;51.842;-2.230;2023-05-29T14:24:16;20.00;89.00
37222;DHT22;23119;51.842;-2.230;2023-05-29T14:26:43;20.00;88.00
37222;DHT22;23119;51.842;-2.230;2023-05-29T14:29:12;20.00;88.10
37222;DHT22;23119;51.842;-2.230;2023-05-29T14:31:39;20.10;88.00
37222;DHT22;23119;51.842;-2.230;2023-05-29T14:34:07;20.10;88.30
37222;DHT22;23119;51.842;-2.230;2023-05-29T14:36:36;20.10;88.00
37222;DHT22;23119;51.842;-2.230;2023-05-29T14:39:03;20.10;88.00
37222;DHT22;23119;51.842;-2.230;2023-05-29T14:41:29;19.90;86.90
37222;DHT22;23119;51.842;-2.230;2023-05-29T14:43:54;20.00;87.60
37222;DHT22;23119;51.842;-2.230;2023-05-29T14:46:26;20.10;86.60
37222;DHT22;23119;51.842;-2.230;2023-05-29T14:48:54;20.00;87.10
37222;DHT22;23119;51.842;-2.230;2023-05-29T14:51:20;20.00;87.90
37222;DHT22;23119;51.842;-2.230;2023-05-29T14:53:46;20.00;88.30
37222;DHT22;23119;51.842;-2.230;2023-05-29T14:56:12;20.00;88.40
37222;DHT22;23119;51.842;-2.230;2023-05-29T14:58:37;20.10;88.10
37222;DHT22;23119;51.842;-2.230;2023-05-29T15:01:03;20.00;87.30
37222;DHT22;23119;51.842;-2.230;2023-05-29T15:03:29;20.10;87.50
37222;DHT22;23119;51.842;-2.230;2023-05-29T15:05:55;20.10;88.00
37222;DHT22;23119;51.842;-2.230;2023-05-29T15:08:21;20.10;87.20
37222;DHT22;23119;51.842;-2.230;2023-05-29T15:10:46;20.10;87.90
37222;DHT22;23119;51.842;-2.230;2023-05-29T15:13:12;20.10;87.30
37222;DHT22;23119;51.842;-2.230;2023-05-29T15:15:38;20.30;87.40
37222;DHT22;23119;51.842;-2.230;2023-05-29T15:18:03;20.40;86.50
37222;DHT22;23119;51.842;-2.230;2023-05-29T15:20:29;20.40;85.50
37222;DHT22;23119;51.842;-2.230;2023-05-29T15:23:00;20.30;85.40
37222;DHT22;23119;51.842;-2.230;2023-05-29T15:25:26;20.30;86.00
37222;DHT22;23119;51.842;-2.230;2023-05-29T15:27:52;20.20;84.20
37222;DHT22;23119;51.842;-2.230;2023-05-29T15:30:21;20.10;84.30
37222;DHT22;23119;51.842;-2.230;2023-05-29T15:32:47;20.10;85.00
37222;DHT22;23119;51.842;-2.230;2023-05-29T15:35:16;20.10;85.10
37222;DHT22;23119;51.842;-2.230;2023-05-29T15:37:44;20.00;84.30
37222;DHT22;23119;51.842;-2.230;2023-05-29T15:40:10;19.90;84.50
37222;DHT22;23119;51.842;-2.230;2023-05-29T15:42:36;19.90;85.40
37222;DHT22;23119;51.842;-2.230;2023-05-29T15:45:03;19.90;85.20
37222;DHT22;23119;51.842;-2.230;2023-05-29T15:47:29;19.90;85.10
37222;DHT22;23119;51.842;-2.230;2023-05-29T15:49:56;20.00;85.30